Time;durP1;ratioP1;P1;durP2;ratioP2;P2;SDS_P1;SDS_P2;PMS_P1;PMS_P2;Temp;Humidity;BMP_temperature;BMP_pressure;BME280_temperature;BME280_humidity;BME280_pressure;Samples;Min_cycle;Max_cycle;Signal;HPM_P1;HPM_P2
2023/02/27 00:00:23;;;;;;;5.13;2.97;;;;;;;-0.21;69.48;101898.66;4975999;28;20076;-79
2023/02/27 00:02:51;;;;;;;6.70;3.00;;;;;;;-0.25;69.80;101896.91;4977104;28;20133;-78
2023/02/27 00:05:19;;;;;;;5.20;2.80;;;;;;;-0.23;69.60;101892.56;4974583;28;20070;-79
2023/02/27 00:07:46;;;;;;;6.60;3.40;;;;;;;-0.19;69.06;101894.34;4984224;28;20062;-81
2023/02/27 00:10:13;;;;;;;6.63;3.40;;;;;;;-0.14;69.41;101891.75;4982969;28;20078;-78
2023/02/27 00:12:41;;;;;;;8.43;3.13;;;;;;;-0.14;69.15;101889.19;4988315;28;20078;-79
2023/02/27 00:15:11;;;;;;;8.95;3.70;;;;;;;-0.14;68.90;101895.22;4988810;28;20042;-79
2023/02/27 00:17:39;;;;;;;5.00;2.80;;;;;;;-0.16;69.65;101891.78;4994963;28;20227;-78
2023/02/27 00:20:10;;;;;;;7.22;3.10;;;;;;;-0.15;69.25;101893.50;4987111;28;20051;-78
2023/02/27 00:22:38;;;;;;;5.28;2.63;;;;;;;-0.12;69.08;101895.25;4962237;28;20042;-77
2023/02/27 00:25:06;;;;;;;6.97;3.13;;;;;;;-0.11;69.09;101899.56;4993806;28;20114;-78
2023/02/27 00:27:34;;;;;;;4.65;2.72;;;;;;;-0.13;69.21;101901.28;4977878;28;20082;-81
2023/02/27 00:30:04;;;;;;;7.78;3.28;;;;;;;-0.17;69.53;101900.41;4980346;28;20074;-80
2023/02/27 00:32:31;;;;;;;6.57;2.83;;;;;;;-0.18;69.08;101896.09;4989986;28;20078;-79
2023/02/27 00:34:58;;;;;;;5.82;2.83;;;;;;;-0.20;69.40;101896.91;4979687;28;20046;-78
2023/02/27 00:37:26;;;;;;;4.72;2.70;;;;;;;-0.23;69.56;101900.34;4983398;28;20055;-79
2023/02/27 00:39:53;;;;;;;6.75;2.92;;;;;;;-0.23;69.52;101900.34;4982195;28;20484;-79
2023/02/27 00:42:21;;;;;;;4.05;2.60;;;;;;;-0.22;69.22;101902.09;4971803;28;20058;-78
2023/02/27 00:44:48;;;;;;;4.22;2.50;;;;;;;-0.24;69.41;101897.75;4983663;28;20050;-79
2023/02/27 00:47:15;;;;;;;5.50;2.40;;;;;;;-0.23;69.63;101895.16;4974715;28;20083;-79
2023/02/27 00:49:43;;;;;;;4.00;2.80;;;;;;;-0.25;69.15;101902.06;4971403;28;20149;-78
2023/02/27 00:52:10;;;;;;;4.32;1.90;;;;;;;-0.25;69.83;101899.47;4979127;28;20720;-78
2023/02/27 00:54:37;;;;;;;11.50;3.15;;;;;;;-0.27;69.45;101886.53;4988119;28;20060;-79
2023/02/27 00:57:04;;;;;;;7.70;3.00;;;;;;;-0.31;69.21;101889.97;4989000;28;20085;-78
2023/02/27 00:59:32;;;;;;;5.57;2.80;;;;;;;-0.30;69.56;101890.81;4982924;28;20057;-79
2023/02/27 01:01:59;;;;;;;4.75;2.42;;;;;;;-0.34;69.86;101886.50;4974456;28;20622;-78
2023/02/27 01:04:26;;;;;;;5.93;2.50;;;;;;;-0.36;70.22;101891.66;4968226;28;20043;-78
2023/02/27 01:06:53;;;;;;;4.22;2.20;;;;;;;-0.37;69.66;101886.47;4975729;28;20057;-78
2023/02/27 01:09:21;;;;;;;4.18;2.25;;;;;;;-0.38;69.85;101892.50;4973063;28;20240;-79
2023/02/27 01:11:48;;;;;;;3.63;2.28;;;;;;;-0.37;69.82;101886.47;4985842;28;20617;-80
2023/02/27 01:14:15;;;;;;;5.78;2.35;;;;;;;-0.44;70.17;101884.72;4972817;28;20062;-77
2023/02/27 01:16:42;;;;;;;3.83;2.28;;;;;;;-0.44;70.42;101889.88;4957700;28;20047;-78
2023/02/27 01:19:10;;;;;;;5.30;2.50;;;;;;;-0.44;70.40;101887.28;4975190;28;20054;-77
2023/02/27 01:21:37;;;;;;;5.90;3.20;;;;;;;-0.47;70.49;101876.91;4983633;28;20122;-79
2023/02/27 01:24:04;;;;;;;4.55;2.15;;;;;;;-0.53;70.36;101878.63;4975041;28;20146;-77
2023/02/27 01:26:31;;;;;;;4.63;2.42;;;;;;;-0.49;70.44;101884.69;4985127;28;20141;-79
2023/02/27 01:28:58;;;;;;;6.82;2.92;;;;;;;-0.46;70.16;101873.47;4974049;28;20054;-79
2023/02/27 01:31:26;;;;;;;5.80;2.75;;;;;;;-0.43;70.26;101876.09;4971420;28;20046;-79
2023/02/27 01:33:54;;;;;;;4.82;2.55;;;;;;;-0.43;70.26;101882.13;4975528;28;20077;-79
2023/02/27 01:36:21;;;;;;;6.75;2.75;;;;;;;-0.43;69.84;101884.72;4980057;28;20053;-81
2023/02/27 01:38:48;;;;;;;4.25;2.40;;;;;;;-0.46;69.99;101883.81;4984514;28;20105;-79
2023/02/27 01:41:16;;;;;;;4.35;2.25;;;;;;;-0.54;70.37;101874.31;4981171;28;20089;-81
2023/02/27 01:43:58;;;;;;;4.07;2.22;;;;;;;-0.56;71.09;101870.81;4982257;28;20070;-80
2023/02/27 01:46:27;;;;;;;5.55;2.15;;;;;;;-0.59;71.12;101875.97;4983991;28;20051;-79
2023/02/27 01:49:15;;;;;;;4.00;2.22;;;;;;;-0.60;71.44;101874.25;4982920;28;20070;-78
2023/02/27 01:51:49;;;;;;;5.07;2.25;;;;;;;-0.59;71.02;101875.09;4978014;28;20061;-78
2023/02/27 01:54:19;;;;;;;3.40;1.90;;;;;;;-0.57;71.25;101873.41;4960526;28;20129;-79
2023/02/27 01:56:47;;;;;;;4.93;2.00;;;;;;;-0.55;71.12;101869.09;4972887;28;20078;-78
2023/02/27 01:59:15;;;;;;;3.70;1.70;;;;;;;-0.55;71.13;101867.38;4963668;28;20131;-81
2023/02/27 02:01:42;;;;;;;5.85;2.00;;;;;;;-0.58;70.83;101874.28;4977708;28;20047;-79
2023/02/27 02:04:25;;;;;;;4.63;2.05;;;;;;;-0.59;71.82;101872.50;4978299;28;20057;-79
2023/02/27 02:07:01;;;;;;;4.93;1.98;;;;;;;-0.61;71.33;101882.00;4977793;28;20287;-80
2023/02/27 02:09:30;;;;;;;4.25;2.42;;;;;;;-0.64;71.50;101882.81;4949161;28;20081;-78
2023/02/27 02:11:58;;;;;;;6.57;2.80;;;;;;;-0.62;71.61;101881.13;4973458;28;20134;-76
2023/02/27 02:14:25;;;;;;;5.43;2.08;;;;;;;-0.62;71.37;101875.09;4979555;28;20046;-79
2023/02/27 02:17:07;;;;;;;3.95;1.73;;;;;;;-0.63;71.53;101870.75;4975612;28;20138;-79
2023/02/27 02:20:06;;;;;;;4.68;2.38;;;;;;;-0.63;71.66;101882.00;4980626;28;20146;-79
2023/02/27 02:22:57;;;;;;;4.55;2.13;;;;;;;-0.66;71.88;101883.69;4977568;28;20517;-78
2023/02/27 02:25:43;;;;;;;4.18;2.30;;;;;;;-0.71;72.04;101875.91;4984726;28;20078;-79
2023/02/27 02:28:37;;;;;;;3.45;1.95;;;;;;;-0.73;71.71;101875.00;5001953;28;20074;-79
2023/02/27 02:31:42;;;;;;;3.75;1.95;;;;;;;-0.78;72.37;101880.13;4977263;28;20061;-80
2023/02/27 02:34:25;;;;;;;5.22;2.10;;;;;;;-0.78;72.05;101882.72;4985879;28;20150;-78
2023/02/27 02:37:01;;;;;;;2.85;1.90;;;;;;;-0.80;72.62;101892.19;4973944;28;20145;-80
2023/02/27 02:39:54;;;;;;;3.85;1.90;;;;;;;-0.80;72.59;101893.94;4972089;28;20235;-79
2023/02/27 02:42:26;;;;;;;3.10;1.83;;;;;;;-0.83;72.87;101891.31;4981150;28;20607;-79
2023/02/27 02:45:07;;;;;;;4.45;1.90;;;;;;;-0.83;72.54;101887.00;4973553;28;20074;-80
2023/02/27 02:47:57;;;;;;;4.68;1.90;;;;;;;-0.81;72.93;101895.66;4962040;28;20065;-79
2023/02/27 02:50:46;;;;;;;4.40;1.77;;;;;;;-0.83;72.52;101899.06;4991282;28;20059;-77
2023/02/27 02:53:36;;;;;;;3.83;1.52;;;;;;;-0.82;72.76;101901.66;4994369;28;20055;-78
2023/02/27 02:56:07;;;;;;;4.32;2.20;;;;;;;-0.80;72.77;101899.97;4980635;28;20074;-79
2023/02/27 02:58:46;;;;;;;4.15;2.10;;;;;;;-0.74;72.70;101906.03;4972959;28;20517;-79
2023/02/27 03:01:22;;;;;;;3.83;1.70;;;;;;;-0.74;72.47;101909.47;4954746;28;20047;-79
2023/02/27 03:03:56;;;;;;;3.85;1.92;;;;;;;-0.75;72.80;101905.16;4972281;28;20064;-79
2023/02/27 03:06:28;;;;;;;3.90;1.70;;;;;;;-0.76;72.62;101900.84;4973872;28;20081;-79
2023/02/27 03:09:01;;;;;;;4.00;1.80;;;;;;;-0.79;72.50;101903.41;4934283;28;20114;-79
2023/02/27 03:11:30;;;;;;;3.90;2.00;;;;;;;-0.79;72.63;101909.44;4966560;28;20082;-80
2023/02/27 03:14:07;;;;;;;3.13;1.70;;;;;;;-0.82;72.59;101913.72;4972976;28;20047;-79
2023/02/27 03:16:46;;;;;;;2.88;1.73;;;;;;;-0.84;72.92;101908.53;4958537;28;20070;-79
2023/02/27 03:19:21;;;;;;;2.70;1.70;;;;;;;-0.88;73.03;101917.13;4962897;28;20081;-78
2023/02/27 03:21:58;;;;;;;3.67;1.83;;;;;;;-0.84;72.70;101921.47;4973080;28;20082;-78
2023/02/27 03:24:36;;;;;;;4.35;1.85;;;;;;;-0.86;72.93;101914.53;4984004;28;20078;-79
2023/02/27 03:27:04;;;;;;;3.85;1.75;;;;;;;-0.87;73.40;101921.44;4981629;28;20085;-78
2023/02/27 03:29:42;;;;;;;5.10;2.00;;;;;;;-0.87;73.32;101926.59;4977776;28;20082;-79
2023/02/27 03:32:16;;;;;;;5.53;2.10;;;;;;;-0.84;73.07;101928.34;4932309;28;20074;-78
2023/02/27 03:34:43;;;;;;;3.10;1.60;;;;;;;-0.86;73.37;101925.75;4979730;28;20133;-78
2023/02/27 03:37:26;;;;;;;5.55;2.08;;;;;;;-0.85;72.65;101929.22;4965902;28;20147;-78
2023/02/27 03:40:24;;;;;;;4.97;2.20;;;;;;;-0.84;73.22;101938.69;4992707;28;20082;-79
2023/02/27 03:43:01;;;;;;;5.95;1.88;;;;;;;-0.88;72.74;101931.78;4998141;28;20074;-77
2023/02/27 03:45:44;;;;;;;4.30;2.25;;;;;;;-0.93;72.91;101930.88;4989468;28;20488;-78
2023/02/27 03:48:11;;;;;;;5.03;2.30;;;;;;;-0.93;73.39;101941.19;4988817;28;20051;-78
2023/02/27 03:50:38;;;;;;;3.65;2.05;;;;;;;-0.98;73.35;101941.16;4983038;28;20110;-79
2023/02/27 03:53:11;;;;;;;3.47;1.98;;;;;;;-0.96;73.71;101941.16;4989544;28;20047;-79
2023/02/27 03:55:43;;;;;;;5.93;2.42;;;;;;;-0.98;73.42;101941.16;4981148;28;20141;-79
2023/02/27 03:58:10;;;;;;;5.72;2.22;;;;;;;-0.97;73.50;101936.84;4964364;28;20069;-78
2023/02/27 04:00:37;;;;;;;4.93;2.20;;;;;;;-0.96;73.33;101943.75;4978956;28;20137;-79
2023/02/27 04:03:05;;;;;;;4.82;1.73;;;;;;;-0.97;73.59;101942.88;4984604;28;20106;-77
2023/02/27 04:05:32;;;;;;;3.70;1.77;;;;;;;-1.00;73.85;101953.19;4974921;28;20272;-79
2023/02/27 04:08:36;;;;;;;4.20;2.22;;;;;;;-1.01;73.64;101946.28;4973670;28;20046;-79
2023/02/27 04:11:13;;;;;;;6.38;2.63;;;;;;;-1.00;73.45;101947.16;4989908;28;20602;-78
2023/02/27 04:13:50;;;;;;;4.38;1.85;;;;;;;-0.99;73.57;101956.63;4994497;28;20046;-77
2023/02/27 04:16:44;;;;;;;5.38;2.40;;;;;;;-1.02;73.34;101963.53;4995290;28;20065;-79
2023/02/27 04:19:30;;;;;;;6.28;2.50;;;;;;;-1.02;73.30;101958.34;4970372;28;20129;-79
2023/02/27 04:22:26;;;;;;;3.67;1.67;;;;;;;-1.04;73.51;101965.25;4972430;28;20151;-78
2023/02/27 04:24:53;;;;;;;3.83;2.10;;;;;;;-1.05;73.37;101963.47;4971149;28;20066;-78
2023/02/27 04:27:26;;;;;;;3.97;2.30;;;;;;;-1.05;73.31;101960.88;4974477;28;20134;-78
2023/02/27 04:29:53;;;;;;;5.65;2.30;;;;;;;-1.05;73.57;101960.03;4973498;28;20051;-79
2023/02/27 04:32:34;;;;;;;6.22;2.70;;;;;;;-1.13;73.77;101964.25;4977500;28;20690;-78
2023/02/27 04:35:10;;;;;;;6.35;2.90;;;;;;;-1.16;74.30;101964.25;4971311;28;20105;-79
2023/02/27 04:37:51;;;;;;;5.45;2.70;;;;;;;-1.13;74.32;101970.28;4965875;28;20113;-77
2023/02/27 04:40:22;;;;;;;3.63;2.13;;;;;;;-1.10;73.66;101969.47;4966662;28;20074;-79
2023/02/27 04:42:53;;;;;;;5.18;2.45;;;;;;;-1.16;73.95;101966.81;4973519;28;20471;-79
2023/02/27 04:45:23;;;;;;;4.70;2.33;;;;;;;-1.18;74.45;101968.50;4968890;28;20408;-78
2023/02/27 04:47:53;;;;;;;5.57;2.13;;;;;;;-1.17;74.20;101962.47;4971692;28;20059;-78
2023/02/27 04:50:34;;;;;;;7.82;2.63;;;;;;;-1.16;74.44;101969.41;4971409;28;20137;-77
2023/02/27 04:53:07;;;;;;;6.07;2.40;;;;;;;-1.14;73.93;101973.72;4974483;28;20054;-78
2023/02/27 04:55:40;;;;;;;5.15;2.67;;;;;;;-1.18;74.11;101958.16;4958117;28;20101;-77
2023/02/27 04:58:17;;;;;;;5.38;2.40;;;;;;;-1.18;74.07;101958.16;4969672;28;20043;-78
2023/02/27 05:00:49;;;;;;;5.50;3.08;;;;;;;-1.20;74.45;101962.47;4967758;28;20074;-78
2023/02/27 05:03:22;;;;;;;6.63;2.85;;;;;;;-1.20;74.05;101958.16;4948688;28;20098;-77
2023/02/27 05:05:52;;;;;;;4.93;2.60;;;;;;;-1.19;73.90;101964.19;4967932;28;20063;-77
2023/02/27 05:08:21;;;;;;;4.13;2.28;;;;;;;-1.18;73.96;101961.63;4965178;28;20189;-77
2023/02/27 05:10:52;;;;;;;4.75;2.63;;;;;;;-1.18;73.72;101969.38;4967299;28;20059;-77
2023/02/27 05:13:25;;;;;;;4.70;2.45;;;;;;;-1.18;73.91;101968.50;4967558;28;20102;-76
2023/02/27 05:16:01;;;;;;;4.72;1.95;;;;;;;-1.19;73.90;101974.53;4982612;28;20125;-77
2023/02/27 05:18:28;;;;;;;5.15;2.38;;;;;;;-1.21;74.01;101968.50;4974243;28;20054;-78
2023/02/27 05:25:01;;;;;;;3.97;2.33;;;;;;;-1.22;74.29;101972.75;4984539;28;20060;-78
2023/02/27 05:27:32;;;;;;;4.65;2.60;;;;;;;-1.22;74.33;101969.31;4981933;28;20055;-80
2023/02/27 05:30:18;;;;;;;4.65;2.00;;;;;;;-1.22;74.13;101971.91;4983472;28;20078;-78
2023/02/27 05:32:57;;;;;;;6.45;3.00;;;;;;;-1.25;74.07;101979.63;4959687;28;20053;-79
2023/02/27 05:35:56;;;;;;;4.50;2.20;;;;;;;-1.34;74.51;101989.00;4973102;28;20061;-78
2023/02/27 05:38:39;;;;;;;4.45;2.17;;;;;;;-1.34;74.43;101993.31;4951752;28;20102;-78
2023/02/27 05:41:14;;;;;;;5.80;2.33;;;;;;;-1.34;74.72;101988.16;4968647;28;20086;-79
2023/02/27 05:44:13;;;;;;;9.05;2.58;;;;;;;-1.34;74.52;101991.59;4973874;28;20038;-78
2023/02/27 05:46:51;;;;;;;5.57;2.53;;;;;;;-1.35;74.34;102005.38;4981666;28;20062;-79
2023/02/27 05:49:31;;;;;;;3.50;2.10;;;;;;;-1.33;74.39;101998.47;4980630;28;20089;-79
2023/02/27 05:52:30;;;;;;;3.58;2.40;;;;;;;-1.33;75.01;101992.47;4973223;28;20114;-80
2023/02/27 05:55:23;;;;;;;6.18;3.13;;;;;;;-1.39;74.99;101998.44;4973587;28;20821;-80
2023/02/27 05:58:08;;;;;;;5.00;3.00;;;;;;;-1.40;74.94;102001.84;4958428;28;20054;-78
2023/02/27 06:00:50;;;;;;;6.85;2.88;;;;;;;-1.39;75.82;102013.06;4978229;28;20078;-79
2023/02/27 06:03:21;;;;;;;7.05;2.75;;;;;;;-1.38;75.53;102012.19;4983705;28;20066;-79
2023/02/27 06:05:52;;;;;;;5.03;2.95;;;;;;;-1.38;75.27;102009.63;4978066;28;20067;-78
2023/02/27 06:08:20;;;;;;;6.35;2.83;;;;;;;-1.36;75.32;102013.06;4963659;28;20050;-78
2023/02/27 06:10:50;;;;;;;6.63;3.28;;;;;;;-1.37;75.17;102022.53;4959960;28;20046;-79
2023/02/27 06:13:21;;;;;;;9.63;3.90;;;;;;;-1.36;75.01;102024.28;4956272;28;20039;-79
2023/02/27 06:15:49;;;;;;;6.47;3.20;;;;;;;-1.37;75.55;102027.72;4942580;28;20141;-80
2023/02/27 06:18:23;;;;;;;5.22;2.60;;;;;;;-1.37;75.27;102034.59;4956356;28;20087;-80
2023/02/27 06:20:53;;;;;;;7.20;3.00;;;;;;;-1.36;75.64;102036.31;4991683;28;20080;-79
2023/02/27 06:23:23;;;;;;;5.38;3.10;;;;;;;-1.36;75.57;102034.59;4980153;28;20038;-79
2023/02/27 06:25:53;;;;;;;6.30;2.90;;;;;;;-1.32;75.40;102036.38;4992666;28;20058;-78
2023/02/27 06:28:21;;;;;;;5.90;2.65;;;;;;;-1.29;75.08;102038.16;4958484;28;20043;-80
2023/02/27 06:30:53;;;;;;;5.45;3.15;;;;;;;-1.31;75.50;102026.91;4972186;28;20109;-78
2023/02/27 06:33:24;;;;;;;5.20;2.70;;;;;;;-1.32;75.92;102025.19;4990613;28;20449;-79
2023/02/27 06:36:01;;;;;;;6.22;2.97;;;;;;;-1.30;75.61;102029.53;4978976;28;20046;-81
2023/02/27 06:38:46;;;;;;;6.22;3.22;;;;;;;-1.25;75.61;102042.50;4970735;28;20081;-79
2023/02/27 06:41:59;;;;;;;7.85;3.33;;;;;;;-1.21;76.19;102043.41;4975603;28;20030;-78
2023/02/27 06:44:50;;;;;;;6.80;2.85;;;;;;;-1.18;75.70;102056.34;4916552;28;20132;-79
2023/02/27 06:47:17;;;;;;;5.53;3.08;;;;;;;-1.12;75.19;102059.03;4966594;28;20046;-79
2023/02/27 06:49:44;;;;;;;9.05;3.72;;;;;;;-1.05;75.68;102056.53;4983226;28;20074;-78
2023/02/27 06:52:12;;;;;;;6.43;3.55;;;;;;;-1.11;77.45;102058.19;4987936;28;20738;-79
2023/02/27 06:54:39;;;;;;;9.25;3.00;;;;;;;-1.13;77.30;102059.84;4986481;28;20146;-79
2023/02/27 06:57:06;;;;;;;7.93;3.70;;;;;;;-1.13;77.32;102068.47;4985084;28;20559;-79
2023/02/27 06:59:33;;;;;;;10.35;2.97;;;;;;;-1.06;76.78;102065.13;4970723;28;20068;-79
2023/02/27 07:02:01;;;;;;;7.32;2.80;;;;;;;-1.00;76.52;102059.16;4952532;28;20089;-79
2023/02/27 07:04:28;;;;;;;5.72;3.05;;;;;;;-0.92;76.53;102067.00;4959535;28;20046;-79
2023/02/27 07:06:57;;;;;;;5.18;2.85;;;;;;;-0.90;76.74;102083.38;4997673;28;20109;-79
2023/02/27 07:09:45;;;;;;;5.03;3.10;;;;;;;-0.85;76.62;102090.38;4991464;28;20114;-78
2023/02/27 07:12:12;;;;;;;7.80;3.08;;;;;;;-0.80;76.31;102093.88;4992865;28;20030;-78
2023/02/27 07:14:39;;;;;;;9.73;3.13;;;;;;;-0.78;76.82;102099.91;4994820;28;20073;-78
2023/02/27 07:17:07;;;;;;;6.80;3.17;;;;;;;-0.78;77.09;102101.63;4993369;28;20062;-79
2023/02/27 07:19:36;;;;;;;8.90;3.53;;;;;;;-0.74;77.29;102103.41;4997590;28;20761;-78
2023/02/27 07:22:28;;;;;;;10.27;4.03;;;;;;;-0.77;77.50;102099.09;4994497;28;20055;-78
2023/02/27 07:24:55;;;;;;;8.82;3.67;;;;;;;-0.79;77.66;102105.94;4983852;28;20093;-77
2023/02/27 07:27:22;;;;;;;7.00;3.05;;;;;;;-0.76;79.47;102107.72;4974942;28;20055;-78
2023/02/27 07:29:49;;;;;;;7.35;3.90;;;;;;;-0.74;78.47;102112.88;4981384;28;20137;-79
2023/02/27 07:32:17;;;;;;;9.77;3.47;;;;;;;-0.72;78.54;102117.25;4972239;28;20046;-79
2023/02/27 07:34:44;;;;;;;7.68;3.47;;;;;;;-0.67;78.12;102115.56;4982073;28;20051;-80
2023/02/27 07:37:11;;;;;;;8.55;3.30;;;;;;;-0.62;77.83;102113.03;4977793;28;20053;-79
2023/02/27 07:39:39;;;;;;;6.78;3.40;;;;;;;-0.62;78.40;102113.03;4979625;28;20078;-80
2023/02/27 07:42:06;;;;;;;8.85;3.70;;;;;;;-0.58;78.26;102110.50;4976555;28;20168;-79
2023/02/27 07:44:34;;;;;;;7.28;3.55;;;;;;;-0.58;78.30;102096.69;4978144;28;20049;-78
2023/02/27 07:47:01;;;;;;;5.07;3.13;;;;;;;-0.54;78.20;102112.28;4983839;28;20125;-78
2023/02/27 07:49:28;;;;;;;6.57;2.60;;;;;;;-0.57;79.42;102111.38;4974879;28;20185;-78
2023/02/27 07:51:55;;;;;;;6.22;3.30;;;;;;;-0.60;79.32;102114.78;4982095;28;20341;-78
2023/02/27 07:54:23;;;;;;;7.75;3.78;;;;;;;-0.60;79.35;102112.19;4994723;28;20062;-78
2023/02/27 07:56:50;;;;;;;8.75;3.55;;;;;;;-0.53;79.51;102119.16;4991631;28;20050;-78
2023/02/27 07:59:17;;;;;;;9.13;4.15;;;;;;;-0.51;80.95;102124.34;4982355;28;20066;-79
2023/02/27 08:01:44;;;;;;;5.57;3.58;;;;;;;-0.52;79.98;102126.06;4965675;28;20054;-78
2023/02/27 08:04:12;;;;;;;6.93;3.47;;;;;;;-0.42;79.96;102126.16;4960260;28;20062;-78
2023/02/27 08:06:39;;;;;;;7.55;4.03;;;;;;;-0.35;79.23;102122.81;4980309;28;20170;-79
2023/02/27 08:09:07;;;;;;;6.22;3.40;;;;;;;-0.29;79.76;102122.84;4959320;28;20609;-78
2023/02/27 08:11:34;;;;;;;7.50;3.92;;;;;;;-0.29;80.72;102120.28;4973528;28;20081;-78
2023/02/27 08:14:01;;;;;;;9.05;3.55;;;;;;;-0.33;80.77;102126.25;4970513;28;20067;-78
2023/02/27 08:16:29;;;;;;;9.63;3.63;;;;;;;-0.26;80.23;102123.75;4957854;28;20114;-79
2023/02/27 08:18:59;;;;;;;11.35;4.25;;;;;;;-0.16;80.16;102129.88;4974203;28;20080;-79
2023/02/27 08:21:27;;;;;;;10.82;4.25;;;;;;;-0.10;79.98;102123.88;4972712;28;20120;-78
2023/02/27 08:23:54;;;;;;;14.07;3.95;;;;;;;-0.08;80.38;102130.84;4969226;28;20450;-79
2023/02/27 08:26:22;;;;;;;7.53;3.83;;;;;;;-0.02;79.75;102124.84;4972656;28;20058;-79
2023/02/27 08:28:50;;;;;;;12.95;4.82;;;;;;;-0.13;82.43;102126.47;4959673;28;20051;-79
2023/02/27 08:31:17;;;;;;;8.10;4.15;;;;;;;-0.17;82.47;102135.06;4978520;28;20074;-79
2023/02/27 08:33:44;;;;;;;9.43;4.53;;;;;;;-0.12;81.38;102141.16;4979024;28;20082;-80
2023/02/27 08:36:11;;;;;;;9.32;4.85;;;;;;;-0.10;81.58;102134.25;4976828;28;20118;-79
2023/02/27 08:38:39;;;;;;;8.40;3.78;;;;;;;-0.03;81.70;102139.50;4984707;28;20563;-79
2023/02/27 08:41:06;;;;;;;8.35;3.80;;;;;;;0.03;82.08;102143.84;4980839;28;20119;-79
2023/02/27 08:43:33;;;;;;;8.73;4.32;;;;;;;0.12;81.47;102136.16;4995384;28;20085;-79
2023/02/27 08:46:01;;;;;;;6.57;3.97;;;;;;;0.20;81.24;102139.69;4984163;28;20122;-79
2023/02/27 08:48:28;;;;;;;8.52;4.03;;;;;;;0.31;81.18;102142.34;4980272;28;20146;-79
2023/02/27 08:50:55;;;;;;;8.63;4.15;;;;;;;0.43;80.16;102144.19;4966039;28;20086;-79
2023/02/27 08:53:24;;;;;;;8.25;3.75;;;;;;;0.52;80.33;102138.19;4985409;28;20085;-79
2023/02/27 08:55:52;;;;;;;10.30;3.92;;;;;;;0.47;81.92;102139.03;4960159;28;20086;-79
2023/02/27 08:58:19;;;;;;;7.93;4.13;;;;;;;0.55;80.98;102141.69;4964182;28;20065;-78
2023/02/27 09:00:49;;;;;;;13.57;5.20;;;;;;;0.67;80.34;102146.06;4988928;28;20046;-79
2023/02/27 09:03:16;;;;;;;6.45;3.90;;;;;;;0.70;80.78;102138.31;4982098;28;20050;-78
2023/02/27 09:05:44;;;;;;;11.05;4.28;;;;;;;0.70;80.77;102144.34;4966071;28;20043;-78
2023/02/27 09:08:11;;;;;;;7.82;4.18;;;;;;;0.79;81.00;102134.91;4987690;28;20041;-79
2023/02/27 09:10:38;;;;;;;7.68;3.92;;;;;;;0.97;80.35;102138.47;4964028;28;20043;-78
2023/02/27 09:13:06;;;;;;;8.93;4.57;;;;;;;0.99;80.85;102139.34;4954975;28;20043;-78
2023/02/27 09:15:34;;;;;;;9.88;4.60;;;;;;;0.99;81.14;102134.16;4991806;28;20507;-79
2023/02/27 09:18:04;;;;;;;8.90;3.90;;;;;;;0.99;80.99;102138.44;4975379;28;20613;-79
2023/02/27 09:20:34;;;;;;;8.63;4.68;;;;;;;1.01;81.23;102142.81;4979840;28;20677;-78
2023/02/27 09:23:02;;;;;;;12.30;3.58;;;;;;;1.08;81.24;102145.41;4979330;28;20090;-79
2023/02/27 09:25:30;;;;;;;9.20;3.58;;;;;;;1.09;81.34;102149.75;4979834;28;20193;-79
2023/02/27 09:27:57;;;;;;;9.40;4.07;;;;;;;1.15;81.08;102139.41;4977920;28;20110;-79
2023/02/27 09:30:24;;;;;;;7.68;3.42;;;;;;;1.30;80.82;102146.38;4978315;28;20063;-78
2023/02/27 09:32:52;;;;;;;7.30;3.65;;;;;;;1.34;80.44;102155.91;4982268;28;20110;-79
2023/02/27 09:35:19;;;;;;;12.80;4.30;;;;;;;1.43;80.29;102150.75;4980789;28;20062;-79
2023/02/27 09:37:48;;;;;;;7.88;3.25;;;;;;;1.48;80.45;102159.41;4982115;28;20150;-79
2023/02/27 09:40:28;;;;;;;10.75;3.45;;;;;;;1.57;80.08;102156.84;4965221;28;20443;-79
2023/02/27 09:43:09;;;;;;;6.38;3.97;;;;;;;1.70;79.96;102165.53;4971174;28;20110;-78
2023/02/27 09:45:38;;;;;;;8.57;3.45;;;;;;;1.79;79.39;102160.34;4961194;28;20050;-79
2023/02/27 09:48:25;;;;;;;7.30;4.00;;;;;;;1.89;79.38;102156.94;4975593;28;20051;-79
2023/02/27 09:50:53;;;;;;;5.30;3.22;;;;;;;1.88;79.57;102152.59;4972326;28;20066;-79
2023/02/27 09:53:31;;;;;;;7.88;4.10;;;;;;;1.87;78.89;102157.78;4960442;28;20454;-78
2023/02/27 09:56:09;;;;;;;8.73;3.55;;;;;;;1.94;79.01;102169.94;4963127;28;20042;-79
2023/02/27 09:58:43;;;;;;;7.43;3.60;;;;;;;1.98;79.11;102176.81;4993311;28;20042;-78
2023/02/27 10:01:20;;;;;;;7.78;3.38;;;;;;;2.03;79.37;102175.13;4978712;28;20077;-78
2023/02/27 10:03:56;;;;;;;7.68;3.40;;;;;;;2.15;79.22;102184.66;4962932;28;20054;-78
2023/02/27 10:06:27;;;;;;;5.85;3.50;;;;;;;2.26;78.99;102175.16;5003118;28;20078;-79
2023/02/27 10:09:13;;;;;;;5.45;3.33;;;;;;;2.36;78.64;102174.28;4988298;28;20126;-79
2023/02/27 10:11:55;;;;;;;8.07;3.83;;;;;;;2.47;78.53;102179.44;5005858;28;20085;-79
2023/02/27 10:14:49;;;;;;;5.90;3.30;;;;;;;2.58;77.56;102182.06;4993190;28;20380;-78
2023/02/27 10:17:27;;;;;;;7.38;3.13;;;;;;;2.71;77.10;102184.66;4972593;28;20265;-78
2023/02/27 10:19:59;;;;;;;10.32;4.10;;;;;;;2.81;76.69;102180.28;4989518;28;20082;-79
2023/02/27 10:22:33;;;;;;;6.15;2.83;;;;;;;2.91;75.96;102183.72;4951314;28;20058;-79
2023/02/27 10:25:36;;;;;;;4.55;2.90;;;;;;;2.99;75.18;102176.78;4986296;28;20537;-79
2023/02/27 10:28:18;;;;;;;7.70;3.10;;;;;;;3.11;75.65;102181.97;4973386;28;20100;-83
2023/02/27 10:31:11;;;;;;;9.50;2.55;;;;;;;3.25;74.81;102182.78;4957277;28;20070;-80
2023/02/27 10:33:56;;;;;;;5.50;3.00;;;;;;;3.33;73.77;102181.84;4982537;28;20211;-79
2023/02/27 10:36:36;;;;;;;5.45;2.70;;;;;;;3.44;73.14;102191.38;4952530;28;20050;-79
2023/02/27 10:39:07;;;;;;;8.85;2.83;;;;;;;3.58;74.06;102191.31;4979157;28;20054;-79
2023/02/27 10:41:42;;;;;;;8.18;2.70;;;;;;;3.72;73.84;102189.47;4965328;28;20660;-79
2023/02/27 10:44:17;;;;;;;8.82;2.95;;;;;;;3.85;73.39;102198.09;4972118;28;20042;-79
2023/02/27 10:46:57;;;;;;;4.63;2.03;;;;;;;3.95;73.28;102191.94;4964773;28;20082;-79
2023/02/27 10:49:30;;;;;;;7.03;2.20;;;;;;;4.05;72.13;102195.34;4978313;28;20145;-79
2023/02/27 10:52:14;;;;;;;6.32;2.03;;;;;;;4.16;71.21;102192.69;4969857;28;20066;-79
2023/02/27 10:54:45;;;;;;;5.00;2.22;;;;;;;4.24;70.60;102193.50;4978746;28;20051;-77
2023/02/27 10:57:40;;;;;;;6.40;2.47;;;;;;;4.35;70.57;102196.88;5009637;28;20039;-79
2023/02/27 11:00:48;;;;;;;3.38;2.20;;;;;;;4.39;68.59;102195.13;4983031;28;20527;-80
2023/02/27 11:03:28;;;;;;;4.80;2.08;;;;;;;4.50;70.04;102194.16;4978102;28;20515;-79
2023/02/27 11:06:24;;;;;;;3.95;2.15;;;;;;;4.56;67.87;102201.06;4953602;28;20365;-79
2023/02/27 11:09:11;;;;;;;4.78;2.58;;;;;;;4.51;66.25;102198.50;4971860;28;20054;-79
2023/02/27 11:11:39;;;;;;;3.67;1.73;;;;;;;4.60;67.45;102196.69;4946391;28;20054;-80
2023/02/27 11:14:34;;;;;;;6.55;2.15;;;;;;;4.84;67.32;102188.63;4978093;28;20038;-79
2023/02/27 11:17:21;;;;;;;6.70;2.28;;;;;;;5.03;67.15;102184.06;4980994;28;20068;-79
2023/02/27 11:19:51;;;;;;;7.70;2.83;;;;;;;5.21;66.92;102188.22;4979918;28;20034;-80
2023/02/27 11:22:23;;;;;;;6.75;2.22;;;;;;;5.39;66.71;102181.91;4995704;28;20062;-80
2023/02/27 11:25:19;;;;;;;5.90;1.98;;;;;;;5.56;66.56;102180.81;4980040;28;20046;-79
2023/02/27 11:27:50;;;;;;;2.63;1.48;;;;;;;5.73;65.83;102182.34;4986502;28;20078;-80
2023/02/27 11:30:30;;;;;;;7.28;2.17;;;;;;;5.96;65.39;102190.75;4985763;28;20058;-80
2023/02/27 11:33:09;;;;;;;7.05;1.63;;;;;;;5.92;60.92;102177.75;4965558;28;20047;-80
2023/02/27 11:35:52;;;;;;;6.18;2.17;;;;;;;5.80;61.91;102183.97;4989378;28;20039;-80
2023/02/27 11:38:33;;;;;;;4.55;1.70;;;;;;;5.92;65.06;102181.22;4969080;28;20418;-80
2023/02/27 11:41:12;;;;;;;5.07;1.42;;;;;;;5.88;62.42;102182.09;4971522;28;20106;-79
2023/02/27 11:43:51;;;;;;;4.47;1.35;;;;;;;5.90;63.16;102180.34;4968250;28;20047;-78
2023/02/27 11:46:44;;;;;;;4.70;1.50;;;;;;;5.83;63.79;102183.94;4976023;28;20093;-78
2023/02/27 11:50:03;;;;;;;8.43;1.50;;;;;;;5.96;63.93;102176.81;4988994;28;20046;-80
2023/02/27 11:52:56;;;;;;;3.58;1.70;;;;;;;6.01;62.18;102175.84;5005565;28;20075;-78
2023/02/27 11:55:27;;;;;;;8.57;1.35;;;;;;;6.01;62.65;102178.47;4969199;28;20106;-79
2023/02/27 11:58:04;;;;;;;4.25;1.70;;;;;;;6.12;60.68;102178.28;4969437;28;20041;-79
2023/02/27 12:00:44;;;;;;;3.42;1.50;;;;;;;6.19;61.74;102181.69;4994781;28;20053;-78
2023/02/27 12:03:30;;;;;;;4.07;1.50;;;;;;;6.29;63.98;102175.41;4988242;28;20078;-78